Huvudsida
METAR-TAF:

METAR-TAF

Flygplatser :

Franjo Tuđmans flygplats

Zagreb, Kroatien

latitud: 45-44N, longitud: 016-04E, höjd: 106 m

Aktuellt väderrapport

Denna rapport gjordes för 21 minuter sedan, klockan 20:30 UTC
Vind 4 kt från nordost
Temperatur 4°C
Fuktighet 75%
Tryck 1030 hPa
Sikt 10 km eller mer
Inga moln under 1 500 m eller inga cumulonimbus

METAR: LDZA 162030Z 04004KT CAVOK 04/00 Q1030 NOSIG

Tid: 21:51 (20:51 UTC)

Väderprognos

Denna rapport gjordes för 3 timmar och 26 minuter sedan, klockan 17:25 UTC
Prognos gäller från 16 kl. 18 UTC till 17 kl. 18 UTC
Vind 8 kt från nord/nordost
Sikt 10 km eller mer
Inga moln under 1 500 m eller inga cumulonimbus
Temporärt
från 17 kl. 08 UTC till 17 kl. 16 UTC
Vind 15 kt från nord/nordost

TAF: LDZA 161725Z 1618/1718 03008KT CAVOK TX07/1713Z TN01/1705Z TEMPO 1708/1716 03015KT

Aktuella väderrapporter och prognoser från 4000 flygplatser (METAR- och TAF-rapporter).

De tillgängliga stationerna syns som gula och röda prickar på kartan.

För musen över prickarna för att se namnen på stationerna.

Klicka sedan för att få väderrapporter och prognoser.

För att ändra kartan: Klicka på de gröna knapparna med ett svart kors på för att zooma in; den gröna knappen med ett streck på för att zooma ut; eller på de gröna pilarna för angränsande kartor.


METAR-TAF: